sensor_id;sensor_type;location;lat;lon;timestamp;pressure;altitude;pressure_sealevel;temperature;humidity
5455;BME280;2750;49.050;9.250;2022-11-15T00:00:36;98546.03;;;14.74;76.95
5455;BME280;2750;49.050;9.250;2022-11-15T00:05:38;98534.72;;;14.99;76.47
5455;BME280;2750;49.050;9.250;2022-11-15T00:10:39;98540.81;;;15.12;75.20
5455;BME280;2750;49.050;9.250;2022-11-15T00:15:42;98536.91;;;15.43;75.22
5455;BME280;2750;49.050;9.250;2022-11-15T00:20:44;98534.91;;;15.46;74.79
5455;BME280;2750;49.050;9.250;2022-11-15T00:25:46;98543.91;;;15.29;75.53
5455;BME280;2750;49.050;9.250;2022-11-15T00:30:48;98547.50;;;15.28;75.20
5455;BME280;2750;49.050;9.250;2022-11-15T00:35:50;98538.59;;;15.31;75.61
5455;BME280;2750;49.050;9.250;2022-11-15T00:40:51;98533.28;;;15.07;75.83
5455;BME280;2750;49.050;9.250;2022-11-15T00:45:54;98521.13;;;15.19;76.13
5455;BME280;2750;49.050;9.250;2022-11-15T00:50:56;98519.59;;;15.04;75.88
5455;BME280;2750;49.050;9.250;2022-11-15T00:55:58;98516.78;;;14.81;76.85
5455;BME280;2750;49.050;9.250;2022-11-15T01:01:08;98516.88;;;14.67;76.38
5455;BME280;2750;49.050;9.250;2022-11-15T01:06:10;98514.78;;;14.60;76.25
5455;BME280;2750;49.050;9.250;2022-11-15T01:11:12;98505.38;;;14.57;77.64
5455;BME280;2750;49.050;9.250;2022-11-15T01:16:17;98504.47;;;14.31;77.84
5455;BME280;2750;49.050;9.250;2022-11-15T01:21:19;98492.84;;;14.10;77.83
5455;BME280;2750;49.050;9.250;2022-11-15T01:26:22;98484.72;;;13.88;77.99
5455;BME280;2750;49.050;9.250;2022-11-15T01:31:25;98486.00;;;13.68;79.15
5455;BME280;2750;49.050;9.250;2022-11-15T01:36:26;98482.13;;;13.61;78.96
5455;BME280;2750;49.050;9.250;2022-11-15T01:41:30;98478.72;;;13.47;79.45
5455;BME280;2750;49.050;9.250;2022-11-15T01:46:34;98479.41;;;13.36;79.75
5455;BME280;2750;49.050;9.250;2022-11-15T01:51:37;98472.25;;;13.11;80.85
5455;BME280;2750;49.050;9.250;2022-11-15T01:56:43;98466.13;;;13.12;80.72
5455;BME280;2750;49.050;9.250;2022-11-15T02:01:48;98469.53;;;12.84;81.45
5455;BME280;2750;49.050;9.250;2022-11-15T02:06:50;98464.91;;;12.89;81.57
5455;BME280;2750;49.050;9.250;2022-11-15T02:11:53;98464.06;;;12.75;82.20
5455;BME280;2750;49.050;9.250;2022-11-15T02:16:59;98459.44;;;12.80;82.52
5455;BME280;2750;49.050;9.250;2022-11-15T02:22:13;98447.03;;;12.69;83.10
5455;BME280;2750;49.050;9.250;2022-11-15T02:32:57;98441.25;;;12.36;84.70
5455;BME280;2750;49.050;9.250;2022-11-15T02:38:06;98430.84;;;12.50;84.12
5455;BME280;2750;49.050;9.250;2022-11-15T02:43:11;98429.00;;;12.38;84.96
5455;BME280;2750;49.050;9.250;2022-11-15T02:48:37;98422.06;;;12.53;85.04
5455;BME280;2750;49.050;9.250;2022-11-15T02:53:40;98418.09;;;12.88;83.93
5455;BME280;2750;49.050;9.250;2022-11-15T02:59:01;98414.66;;;13.02;83.36
5455;BME280;2750;49.050;9.250;2022-11-15T03:04:19;98416.75;;;13.11;82.56
5455;BME280;2750;49.050;9.250;2022-11-15T03:09:30;98415.06;;;13.10;82.17
5455;BME280;2750;49.050;9.250;2022-11-15T03:14:35;98414.81;;;13.27;81.30
5455;BME280;2750;49.050;9.250;2022-11-15T03:19:44;98404.50;;;13.52;80.93
5455;BME280;2750;49.050;9.250;2022-11-15T03:24:50;98399.78;;;13.71;80.33
5455;BME280;2750;49.050;9.250;2022-11-15T03:29:56;98393.94;;;13.41;80.59
5455;BME280;2750;49.050;9.250;2022-11-15T03:35:05;98398.94;;;13.71;79.60
5455;BME280;2750;49.050;9.250;2022-11-15T03:40:08;98391.63;;;13.63;79.79
5455;BME280;2750;49.050;9.250;2022-11-15T03:45:14;98389.03;;;13.36;80.36
5455;BME280;2750;49.050;9.250;2022-11-15T03:50:21;98381.72;;;13.15;80.93
5455;BME280;2750;49.050;9.250;2022-11-15T03:55:24;98386.94;;;13.01;81.21
5455;BME280;2750;49.050;9.250;2022-11-15T04:00:26;98390.75;;;13.09;81.23
5455;BME280;2750;49.050;9.250;2022-11-15T04:05:28;98370.84;;;13.08;80.84
5455;BME280;2750;49.050;9.250;2022-11-15T04:10:30;98372.50;;;13.23;80.93
5455;BME280;2750;49.050;9.250;2022-11-15T04:15:32;98371.97;;;13.45;80.53
5455;BME280;2750;49.050;9.250;2022-11-15T04:20:35;98372.84;;;13.31;80.79
5455;BME280;2750;49.050;9.250;2022-11-15T04:25:55;98369.28;;;13.59;79.84
5455;BME280;2750;49.050;9.250;2022-11-15T04:30:57;98366.81;;;13.70;79.64
5455;BME280;2750;49.050;9.250;2022-11-15T04:36:00;98363.78;;;13.64;79.82
5455;BME280;2750;49.050;9.250;2022-11-15T04:41:19;98357.25;;;13.83;79.20
5455;BME280;2750;49.050;9.250;2022-11-15T04:46:20;98358.44;;;13.65;80.60
5455;BME280;2750;49.050;9.250;2022-11-15T04:51:23;98348.84;;;13.66;79.61
5455;BME280;2750;49.050;9.250;2022-11-15T04:56:25;98350.63;;;13.53;80.15
5455;BME280;2750;49.050;9.250;2022-11-15T05:01:26;98333.16;;;13.00;82.21
5455;BME280;2750;49.050;9.250;2022-11-15T05:06:29;98333.53;;;13.34;81.74
5455;BME280;2750;49.050;9.250;2022-11-15T05:11:31;98327.66;;;13.58;81.40
5455;BME280;2750;49.050;9.250;2022-11-15T05:16:32;98330.66;;;13.39;81.00
5455;BME280;2750;49.050;9.250;2022-11-15T05:21:36;98325.16;;;13.17;82.41
5455;BME280;2750;49.050;9.250;2022-11-15T05:26:37;98327.75;;;13.17;82.65
5455;BME280;2750;49.050;9.250;2022-11-15T05:31:39;98321.28;;;12.95;83.31
5455;BME280;2750;49.050;9.250;2022-11-15T05:36:44;98320.06;;;13.01;82.75
5455;BME280;2750;49.050;9.250;2022-11-15T05:41:48;98323.09;;;12.81;83.06
5455;BME280;2750;49.050;9.250;2022-11-15T05:46:52;98315.44;;;12.51;84.20
5455;BME280;2750;49.050;9.250;2022-11-15T05:51:57;98316.91;;;12.55;83.53
5455;BME280;2750;49.050;9.250;2022-11-15T05:56:59;98316.34;;;12.64;83.12
5455;BME280;2750;49.050;9.250;2022-11-15T06:02:01;98317.19;;;12.65;83.68
5455;BME280;2750;49.050;9.250;2022-11-15T06:07:04;98318.22;;;12.48;84.45
5455;BME280;2750;49.050;9.250;2022-11-15T06:12:06;98314.41;;;12.54;84.12
5455;BME280;2750;49.050;9.250;2022-11-15T06:17:07;98313.00;;;12.62;83.37
5455;BME280;2750;49.050;9.250;2022-11-15T06:22:10;98319.25;;;12.60;83.92
5455;BME280;2750;49.050;9.250;2022-11-15T06:27:12;98307.38;;;12.82;82.78
5455;BME280;2750;49.050;9.250;2022-11-15T06:32:14;98316.72;;;12.72;82.61
5455;BME280;2750;49.050;9.250;2022-11-15T06:37:17;98312.75;;;12.53;83.67
5455;BME280;2750;49.050;9.250;2022-11-15T06:42:18;98315.41;;;12.65;83.36
5455;BME280;2750;49.050;9.250;2022-11-15T06:47:20;98313.56;;;12.67;82.66
5455;BME280;2750;49.050;9.250;2022-11-15T06:52:23;98319.25;;;12.60;83.76
5455;BME280;2750;49.050;9.250;2022-11-15T06:57:24;98328.81;;;12.59;83.72
5455;BME280;2750;49.050;9.250;2022-11-15T07:02:26;98323.22;;;12.65;83.34
5455;BME280;2750;49.050;9.250;2022-11-15T07:07:29;98322.47;;;12.63;83.76
5455;BME280;2750;49.050;9.250;2022-11-15T07:12:30;98320.00;;;12.88;82.36
5455;BME280;2750;49.050;9.250;2022-11-15T07:17:32;98319.56;;;12.82;82.91
5455;BME280;2750;49.050;9.250;2022-11-15T07:22:35;98316.28;;;12.92;81.91
5455;BME280;2750;49.050;9.250;2022-11-15T07:27:36;98318.09;;;13.05;82.00
5455;BME280;2750;49.050;9.250;2022-11-15T07:32:38;98320.66;;;13.19;81.38
5455;BME280;2750;49.050;9.250;2022-11-15T07:37:41;98325.38;;;13.14;82.82
5455;BME280;2750;49.050;9.250;2022-11-15T07:42:43;98321.22;;;13.24;82.13
5455;BME280;2750;49.050;9.250;2022-11-15T07:47:54;98321.59;;;13.57;80.91
5455;BME280;2750;49.050;9.250;2022-11-15T07:52:59;98318.22;;;13.82;80.02
5455;BME280;2750;49.050;9.250;2022-11-15T07:58:01;98324.50;;;14.05;80.07
5455;BME280;2750;49.050;9.250;2022-11-15T08:03:04;98323.53;;;14.56;78.65
5455;BME280;2750;49.050;9.250;2022-11-15T08:08:09;98321.50;;;14.72;78.06
5455;BME280;2750;49.050;9.250;2022-11-15T08:13:11;98317.91;;;14.86;77.40
5455;BME280;2750;49.050;9.250;2022-11-15T08:18:15;98306.53;;;14.87;77.64
5455;BME280;2750;49.050;9.250;2022-11-15T08:23:18;98301.25;;;15.00;77.35
5455;BME280;2750;49.050;9.250;2022-11-15T08:28:20;98300.41;;;15.23;76.65
5455;BME280;2750;49.050;9.250;2022-11-15T08:33:21;98302.63;;;15.40;75.98
5455;BME280;2750;49.050;9.250;2022-11-15T08:38:25;98297.06;;;15.91;74.24
5455;BME280;2750;49.050;9.250;2022-11-15T08:43:26;98291.16;;;16.22;74.16
5455;BME280;2750;49.050;9.250;2022-11-15T08:48:29;98285.94;;;16.44;74.37
5455;BME280;2750;49.050;9.250;2022-11-15T08:53:33;98279.22;;;16.85;72.20
5455;BME280;2750;49.050;9.250;2022-11-15T08:58:35;98281.47;;;16.89;72.64
5455;BME280;2750;49.050;9.250;2022-11-15T09:03:39;98267.56;;;17.20;71.74
5455;BME280;2750;49.050;9.250;2022-11-15T09:08:42;98265.72;;;17.32;71.93
5455;BME280;2750;49.050;9.250;2022-11-15T09:13:44;98260.53;;;17.10;72.66
5455;BME280;2750;49.050;9.250;2022-11-15T09:18:45;98263.03;;;17.43;72.08
5455;BME280;2750;49.050;9.250;2022-11-15T09:23:50;98261.50;;;16.77;73.92
5455;BME280;2750;49.050;9.250;2022-11-15T09:28:51;98257.06;;;17.09;73.74
5455;BME280;2750;49.050;9.250;2022-11-15T09:33:53;98254.06;;;17.46;70.83
5455;BME280;2750;49.050;9.250;2022-11-15T09:38:57;98247.94;;;18.28;69.23
5455;BME280;2750;49.050;9.250;2022-11-15T09:44:08;98252.50;;;18.36;68.32
5455;BME280;2750;49.050;9.250;2022-11-15T09:49:16;98251.72;;;19.04;67.56
5455;BME280;2750;49.050;9.250;2022-11-15T09:54:26;98243.69;;;19.44;67.12
5455;BME280;2750;49.050;9.250;2022-11-15T09:59:42;98234.13;;;19.33;66.90
5455;BME280;2750;49.050;9.250;2022-11-15T10:04:46;98237.44;;;19.64;65.62
5455;BME280;2750;49.050;9.250;2022-11-15T10:09:52;98229.94;;;20.16;64.21
5455;BME280;2750;49.050;9.250;2022-11-15T10:15:00;98218.47;;;19.41;64.36
5455;BME280;2750;49.050;9.250;2022-11-15T10:20:10;98213.91;;;18.95;65.50
5455;BME280;2750;49.050;9.250;2022-11-15T10:25:21;98206.25;;;19.40;64.68
5455;BME280;2750;49.050;9.250;2022-11-15T10:30:31;98200.03;;;20.07;63.79
5455;BME280;2750;49.050;9.250;2022-11-15T10:35:33;98192.31;;;19.96;63.44
5455;BME280;2750;49.050;9.250;2022-11-15T10:40:38;98189.38;;;20.26;63.34
5455;BME280;2750;49.050;9.250;2022-11-15T10:45:40;98182.41;;;20.80;63.34
5455;BME280;2750;49.050;9.250;2022-11-15T10:50:43;98177.34;;;20.86;62.90
5455;BME280;2750;49.050;9.250;2022-11-15T10:55:48;98167.84;;;20.93;61.58
5455;BME280;2750;49.050;9.250;2022-11-15T11:00:52;98165.44;;;20.82;61.81
5455;BME280;2750;49.050;9.250;2022-11-15T11:06:04;98165.06;;;20.95;62.67
5455;BME280;2750;49.050;9.250;2022-11-15T11:11:10;98151.25;;;20.21;61.96
5455;BME280;2750;49.050;9.250;2022-11-15T11:16:37;98151.44;;;20.46;63.81
5455;BME280;2750;49.050;9.250;2022-11-15T11:21:49;98141.84;;;20.45;62.02
5455;BME280;2750;49.050;9.250;2022-11-15T11:27:08;98148.78;;;20.46;62.15
5455;BME280;2750;49.050;9.250;2022-11-15T11:32:26;98147.78;;;20.47;61.25
5455;BME280;2750;49.050;9.250;2022-11-15T11:37:35;98141.00;;;20.00;63.28
5455;BME280;2750;49.050;9.250;2022-11-15T11:42:46;98138.91;;;19.94;63.05
5455;BME280;2750;49.050;9.250;2022-11-15T11:47:59;98125.28;;;19.81;64.29
5455;BME280;2750;49.050;9.250;2022-11-15T11:53:11;98120.59;;;20.02;63.60
5455;BME280;2750;49.050;9.250;2022-11-15T11:58:17;98109.50;;;19.71;65.29
5455;BME280;2750;49.050;9.250;2022-11-15T12:03:26;98097.47;;;19.96;66.71
5455;BME280;2750;49.050;9.250;2022-11-15T12:08:35;98091.66;;;20.20;67.22
5455;BME280;2750;49.050;9.250;2022-11-15T12:13:43;98080.63;;;20.24;67.47
5455;BME280;2750;49.050;9.250;2022-11-15T12:18:48;98075.56;;;20.40;65.99
5455;BME280;2750;49.050;9.250;2022-11-15T12:23:52;98065.31;;;20.73;64.43
5455;BME280;2750;49.050;9.250;2022-11-15T12:28:59;98067.03;;;21.25;64.72
5455;BME280;2750;49.050;9.250;2022-11-15T12:34:04;98061.09;;;21.23;64.85
5455;BME280;2750;49.050;9.250;2022-11-15T12:39:15;98059.22;;;20.98;66.27
5455;BME280;2750;49.050;9.250;2022-11-15T12:44:57;98057.16;;;20.84;66.10
5455;BME280;2750;49.050;9.250;2022-11-15T12:50:00;98051.63;;;20.34;66.34
5455;BME280;2750;49.050;9.250;2022-11-15T12:55:28;98041.94;;;20.07;67.04
5455;BME280;2750;49.050;9.250;2022-11-15T13:00:40;98030.81;;;19.68;68.61
5455;BME280;2750;49.050;9.250;2022-11-15T13:06:09;98029.41;;;19.37;69.48
5455;BME280;2750;49.050;9.250;2022-11-15T13:11:50;98021.97;;;19.60;69.92
5455;BME280;2750;49.050;9.250;2022-11-15T13:16:58;98015.91;;;19.22;70.16
5455;BME280;2750;49.050;9.250;2022-11-15T13:22:04;98013.25;;;19.22;70.34
5455;BME280;2750;49.050;9.250;2022-11-15T13:27:24;97998.16;;;19.24;70.27
5455;BME280;2750;49.050;9.250;2022-11-15T13:32:27;97986.66;;;19.25;70.71
5455;BME280;2750;49.050;9.250;2022-11-15T13:37:30;97991.91;;;19.35;70.68
5455;BME280;2750;49.050;9.250;2022-11-15T13:42:32;97974.22;;;19.27;71.18
5455;BME280;2750;49.050;9.250;2022-11-15T13:47:35;97973.13;;;19.20;71.69
5455;BME280;2750;49.050;9.250;2022-11-15T13:52:38;97960.06;;;19.28;72.16
5455;BME280;2750;49.050;9.250;2022-11-15T13:57:44;97959.78;;;19.04;72.05
5455;BME280;2750;49.050;9.250;2022-11-15T14:02:48;97954.81;;;18.91;72.77
5455;BME280;2750;49.050;9.250;2022-11-15T14:07:53;97953.75;;;18.75;73.52
5455;BME280;2750;49.050;9.250;2022-11-15T14:12:55;97946.22;;;18.62;73.27
5455;BME280;2750;49.050;9.250;2022-11-15T14:17:58;97942.56;;;18.73;73.01
5455;BME280;2750;49.050;9.250;2022-11-15T14:23:01;97932.84;;;18.83;72.65
5455;BME280;2750;49.050;9.250;2022-11-15T14:28:28;97927.28;;;18.58;73.59
5455;BME280;2750;49.050;9.250;2022-11-15T14:33:33;97922.31;;;18.92;72.88
5455;BME280;2750;49.050;9.250;2022-11-15T14:38:34;97913.53;;;18.74;72.81
5455;BME280;2750;49.050;9.250;2022-11-15T14:43:36;97908.47;;;18.90;72.70
5455;BME280;2750;49.050;9.250;2022-11-15T14:48:39;97900.72;;;18.89;72.17
5455;BME280;2750;49.050;9.250;2022-11-15T14:53:41;97896.34;;;18.80;72.65
5455;BME280;2750;49.050;9.250;2022-11-15T14:58:42;97895.03;;;18.56;72.64
5455;BME280;2750;49.050;9.250;2022-11-15T15:03:46;97885.50;;;18.36;73.78
5455;BME280;2750;49.050;9.250;2022-11-15T15:08:47;97877.03;;;17.77;75.70
5455;BME280;2750;49.050;9.250;2022-11-15T15:13:50;97870.66;;;18.08;74.60
5455;BME280;2750;49.050;9.250;2022-11-15T15:18:54;97858.06;;;18.02;74.68
5455;BME280;2750;49.050;9.250;2022-11-15T15:23:55;97848.03;;;17.88;75.55
5455;BME280;2750;49.050;9.250;2022-11-15T15:28:57;97837.66;;;17.77;75.83
5455;BME280;2750;49.050;9.250;2022-11-15T15:34:00;97840.88;;;17.71;76.06
5455;BME280;2750;49.050;9.250;2022-11-15T15:39:02;97837.53;;;17.68;75.75
5455;BME280;2750;49.050;9.250;2022-11-15T15:44:03;97835.72;;;17.79;75.50
5455;BME280;2750;49.050;9.250;2022-11-15T15:49:08;97818.19;;;17.60;75.25
5455;BME280;2750;49.050;9.250;2022-11-15T15:54:10;97812.94;;;17.60;75.21
5455;BME280;2750;49.050;9.250;2022-11-15T15:59:12;97814.31;;;17.54;75.11
5455;BME280;2750;49.050;9.250;2022-11-15T16:04:15;97806.97;;;17.29;75.61
5455;BME280;2750;49.050;9.250;2022-11-15T16:09:18;97803.28;;;17.41;75.25
5455;BME280;2750;49.050;9.250;2022-11-15T16:14:40;97800.09;;;17.28;75.94
5455;BME280;2750;49.050;9.250;2022-11-15T16:19:42;97792.63;;;17.14;75.24
5455;BME280;2750;49.050;9.250;2022-11-15T16:24:44;97787.63;;;16.92;76.23
5455;BME280;2750;49.050;9.250;2022-11-15T16:29:46;97783.34;;;16.91;75.61
5455;BME280;2750;49.050;9.250;2022-11-15T16:34:49;97775.63;;;16.99;75.55
5455;BME280;2750;49.050;9.250;2022-11-15T16:39:50;97770.00;;;16.94;75.50
5455;BME280;2750;49.050;9.250;2022-11-15T16:44:52;97766.00;;;16.99;74.81
5455;BME280;2750;49.050;9.250;2022-11-15T16:49:55;97766.16;;;16.98;74.83
5455;BME280;2750;49.050;9.250;2022-11-15T16:54:56;97755.66;;;17.07;73.87
5455;BME280;2750;49.050;9.250;2022-11-15T16:59:58;97747.09;;;17.15;73.09
5455;BME280;2750;49.050;9.250;2022-11-15T17:05:01;97746.66;;;17.10;74.50
5455;BME280;2750;49.050;9.250;2022-11-15T17:10:03;97738.41;;;17.05;73.23
5455;BME280;2750;49.050;9.250;2022-11-15T17:15:06;97720.88;;;16.86;73.04
5455;BME280;2750;49.050;9.250;2022-11-15T17:20:13;97719.78;;;17.08;72.67
5455;BME280;2750;49.050;9.250;2022-11-15T17:25:16;97720.59;;;16.99;73.01
5455;BME280;2750;49.050;9.250;2022-11-15T17:30:17;97710.69;;;16.93;72.60
5455;BME280;2750;49.050;9.250;2022-11-15T17:35:20;97707.09;;;16.75;72.20
5455;BME280;2750;49.050;9.250;2022-11-15T17:40:23;97696.69;;;16.63;71.73
5455;BME280;2750;49.050;9.250;2022-11-15T17:45:25;97697.34;;;16.46;72.39
5455;BME280;2750;49.050;9.250;2022-11-15T17:50:28;97695.19;;;16.61;71.60
5455;BME280;2750;49.050;9.250;2022-11-15T17:55:31;97693.56;;;16.69;71.02
5455;BME280;2750;49.050;9.250;2022-11-15T18:00:33;97693.28;;;16.72;71.42
5455;BME280;2750;49.050;9.250;2022-11-15T18:05:38;97696.84;;;16.62;71.79
5455;BME280;2750;49.050;9.250;2022-11-15T18:10:42;97681.97;;;16.62;72.24
5455;BME280;2750;49.050;9.250;2022-11-15T18:15:52;97681.56;;;16.67;71.83
5455;BME280;2750;49.050;9.250;2022-11-15T18:21:00;97687.63;;;16.18;73.51
5455;BME280;2750;49.050;9.250;2022-11-15T18:26:05;97687.63;;;16.18;73.31
5455;BME280;2750;49.050;9.250;2022-11-15T18:31:12;97683.56;;;16.44;72.91
5455;BME280;2750;49.050;9.250;2022-11-15T18:36:18;97680.03;;;16.64;72.82
5455;BME280;2750;49.050;9.250;2022-11-15T18:41:20;97674.50;;;16.67;73.55
5455;BME280;2750;49.050;9.250;2022-11-15T18:46:26;97669.84;;;16.71;72.93
5455;BME280;2750;49.050;9.250;2022-11-15T18:51:30;97668.53;;;16.56;73.42
5455;BME280;2750;49.050;9.250;2022-11-15T18:56:32;97677.78;;;16.50;73.76
5455;BME280;2750;49.050;9.250;2022-11-15T19:01:35;97673.91;;;16.45;74.38
5455;BME280;2750;49.050;9.250;2022-11-15T19:06:39;97671.63;;;16.11;74.89
5455;BME280;2750;49.050;9.250;2022-11-15T19:11:42;97669.78;;;16.33;74.76
5455;BME280;2750;49.050;9.250;2022-11-15T19:16:46;97670.81;;;16.11;75.99
5455;BME280;2750;49.050;9.250;2022-11-15T19:21:51;97671.47;;;16.03;76.73
5455;BME280;2750;49.050;9.250;2022-11-15T19:26:52;97675.72;;;15.64;78.63
5455;BME280;2750;49.050;9.250;2022-11-15T19:31:55;97672.50;;;15.51;80.54
5455;BME280;2750;49.050;9.250;2022-11-15T19:36:57;97672.91;;;15.56;79.73
5455;BME280;2750;49.050;9.250;2022-11-15T19:41:59;97661.50;;;15.57;80.63
5455;BME280;2750;49.050;9.250;2022-11-15T19:47:00;97648.81;;;15.32;82.75
5455;BME280;2750;49.050;9.250;2022-11-15T19:52:03;97633.88;;;15.13;83.66
5455;BME280;2750;49.050;9.250;2022-11-15T19:57:05;97638.88;;;14.84;84.99
5455;BME280;2750;49.050;9.250;2022-11-15T20:02:07;97629.84;;;14.89;84.93
5455;BME280;2750;49.050;9.250;2022-11-15T20:07:11;97624.63;;;15.09;84.26
5455;BME280;2750;49.050;9.250;2022-11-15T20:12:12;97619.03;;;15.44;83.31
5455;BME280;2750;49.050;9.250;2022-11-15T20:17:14;97611.22;;;15.74;81.34
5455;BME280;2750;49.050;9.250;2022-11-15T20:22:17;97608.78;;;15.92;81.07
5455;BME280;2750;49.050;9.250;2022-11-15T20:27:18;97600.25;;;16.00;80.52
5455;BME280;2750;49.050;9.250;2022-11-15T20:32:20;97587.06;;;16.30;79.43
5455;BME280;2750;49.050;9.250;2022-11-15T20:37:23;97602.78;;;16.30;79.72
5455;BME280;2750;49.050;9.250;2022-11-15T20:42:24;97594.81;;;16.32;79.18
5455;BME280;2750;49.050;9.250;2022-11-15T20:47:28;97585.41;;;16.29;78.99
5455;BME280;2750;49.050;9.250;2022-11-15T20:52:31;97589.41;;;16.33;78.74
5455;BME280;2750;49.050;9.250;2022-11-15T20:57:33;97580.19;;;16.48;78.37
5455;BME280;2750;49.050;9.250;2022-11-15T21:02:34;97565.88;;;16.43;78.76
5455;BME280;2750;49.050;9.250;2022-11-15T21:07:38;97566.69;;;16.43;78.89
5455;BME280;2750;49.050;9.250;2022-11-15T21:12:39;97573.56;;;16.35;78.84
5455;BME280;2750;49.050;9.250;2022-11-15T21:17:41;97558.56;;;16.27;78.92
5455;BME280;2750;49.050;9.250;2022-11-15T21:22:44;97553.16;;;16.19;78.36
5455;BME280;2750;49.050;9.250;2022-11-15T21:27:45;97544.38;;;16.20;78.61
5455;BME280;2750;49.050;9.250;2022-11-15T21:32:47;97536.09;;;16.34;78.15
5455;BME280;2750;49.050;9.250;2022-11-15T21:37:49;97531.78;;;15.95;80.02
5455;BME280;2750;49.050;9.250;2022-11-15T21:42:51;97532.84;;;15.63;81.10
5455;BME280;2750;49.050;9.250;2022-11-15T21:47:52;97527.72;;;15.52;81.11
5455;BME280;2750;49.050;9.250;2022-11-15T21:52:55;97518.81;;;15.04;83.24
5455;BME280;2750;49.050;9.250;2022-11-15T21:57:57;97507.44;;;15.05;83.53
5455;BME280;2750;49.050;9.250;2022-11-15T22:02:58;97511.88;;;15.14;82.81
5455;BME280;2750;49.050;9.250;2022-11-15T22:08:01;97501.94;;;15.08;82.31
5455;BME280;2750;49.050;9.250;2022-11-15T22:13:03;97496.88;;;15.16;82.45
5455;BME280;2750;49.050;9.250;2022-11-15T22:18:04;97496.63;;;15.19;81.78
5455;BME280;2750;49.050;9.250;2022-11-15T22:23:07;97486.47;;;15.65;80.40
5455;BME280;2750;49.050;9.250;2022-11-15T22:28:09;97509.34;;;15.83;80.03
5455;BME280;2750;49.050;9.250;2022-11-15T22:33:10;97512.59;;;15.25;82.00
5455;BME280;2750;49.050;9.250;2022-11-15T22:38:13;97519.28;;;15.09;81.87
5455;BME280;2750;49.050;9.250;2022-11-15T22:43:17;97525.88;;;14.82;83.10
5455;BME280;2750;49.050;9.250;2022-11-15T22:48:19;97507.13;;;15.38;80.83
5455;BME280;2750;49.050;9.250;2022-11-15T22:53:23;97510.53;;;15.59;81.20
5455;BME280;2750;49.050;9.250;2022-11-15T22:58:27;97508.22;;;15.75;80.62
5455;BME280;2750;49.050;9.250;2022-11-15T23:03:30;97505.47;;;15.77;80.85
5455;BME280;2750;49.050;9.250;2022-11-15T23:08:33;97500.31;;;15.56;81.60
5455;BME280;2750;49.050;9.250;2022-11-15T23:13:35;97494.59;;;15.32;82.53
5455;BME280;2750;49.050;9.250;2022-11-15T23:18:39;97491.56;;;14.66;85.65
5455;BME280;2750;49.050;9.250;2022-11-15T23:23:42;97499.59;;;14.74;86.70
5455;BME280;2750;49.050;9.250;2022-11-15T23:28:44;97492.44;;;14.35;89.09
5455;BME280;2750;49.050;9.250;2022-11-15T23:33:45;97488.00;;;14.15;89.89
5455;BME280;2750;49.050;9.250;2022-11-15T23:39:01;97479.44;;;14.24;90.26
5455;BME280;2750;49.050;9.250;2022-11-15T23:44:04;97470.84;;;14.33;89.24
5455;BME280;2750;49.050;9.250;2022-11-15T23:49:05;97486.69;;;14.52;88.82
5455;BME280;2750;49.050;9.250;2022-11-15T23:54:09;97476.34;;;14.51;89.33
5455;BME280;2750;49.050;9.250;2022-11-15T23:59:11;97479.25;;;14.57;89.81
